Time;durP1;ratioP1;P1;durP2;ratioP2;P2;SDS_P1;SDS_P2;PMS_P1;PMS_P2;Temp;Humidity;BMP_temperature;BMP_pressure;BME280_temperature;BME280_humidity;BME280_pressure;Samples;Min_cycle;Max_cycle;Signal;HPM_P1;HPM_P2
2023/02/20 00:00:34;;;;;;;6.40;4.68;;;7.50;99.90;;;;;;6069305;23;88828;-75
2023/02/20 00:03:00;;;;;;;8.30;4.65;;;7.50;99.90;;;;;;6038100;23;91349;-75
2023/02/20 00:05:27;;;;;;;6.22;5.20;;;7.50;99.90;;;;;;6039625;23;88709;-75
2023/02/20 00:07:55;;;;;;;6.68;4.60;;;7.50;99.90;;;;;;6014916;23;88700;-75
2023/02/20 00:10:23;;;;;;;7.60;4.57;;;7.50;99.90;;;;;;6039958;23;88891;-75
2023/02/20 00:12:50;;;;;;;7.03;5.43;;;7.60;99.90;;;;;;6038777;23;88301;-75
2023/02/20 00:15:18;;;;;;;6.07;4.97;;;7.60;99.90;;;;;;6014278;23;89375;-75
2023/02/20 00:17:46;;;;;;;5.72;5.03;;;7.60;99.90;;;;;;6040309;23;88219;-75
2023/02/20 00:20:15;;;;;;;5.93;4.65;;;7.60;99.90;;;;;;6014718;23;88835;-75
2023/02/20 00:22:43;;;;;;;6.63;5.93;;;7.60;99.90;;;;;;6040685;23;88619;-75
2023/02/20 00:25:09;;;;;;;8.23;6.03;;;7.60;99.90;;;;;;6014504;23;89259;-75
2023/02/20 00:27:37;;;;;;;6.18;5.18;;;7.60;99.90;;;;;;6040244;23;88383;-75
2023/02/20 00:30:05;;;;;;;7.70;6.65;;;7.70;99.90;;;;;;6014180;23;89673;-75
2023/02/20 00:32:31;;;;;;;7.65;6.20;;;7.70;99.90;;;;;;6013902;23;96970;-76
2023/02/20 00:35:00;;;;;;;8.98;6.10;;;7.70;99.90;;;;;;6038738;23;87952;-75
2023/02/20 00:37:27;;;;;;;8.88;6.65;;;7.70;99.90;;;;;;5990369;23;91138;-75
2023/02/20 00:39:54;;;;;;;8.27;6.97;;;7.70;99.90;;;;;;5990935;23;91311;-75
2023/02/20 00:42:21;;;;;;;10.35;7.22;;;7.70;99.90;;;;;;6039903;23;88070;-75
2023/02/20 00:44:48;;;;;;;8.57;7.05;;;7.70;99.90;;;;;;6038197;23;89509;-75
2023/02/20 00:47:15;;;;;;;10.07;7.05;;;7.80;99.90;;;;;;6038862;23;87418;-75
2023/02/20 00:49:42;;;;;;;10.05;7.13;;;7.80;99.90;;;;;;6040162;23;89272;-75
2023/02/20 00:52:13;;;;;;;8.68;7.13;;;7.80;99.90;;;;;;6014473;23;91252;-75
2023/02/20 00:54:40;;;;;;;8.82;7.53;;;7.80;99.90;;;;;;6037668;23;89352;-75
2023/02/20 00:57:07;;;;;;;10.40;7.93;;;7.80;99.90;;;;;;6040152;23;87886;-75
2023/02/20 00:59:34;;;;;;;8.80;7.90;;;7.80;99.90;;;;;;6038349;23;88734;-75
2023/02/20 01:02:01;;;;;;;9.85;7.75;;;7.90;99.90;;;;;;6023273;23;91112;-75
2023/02/20 01:04:28;;;;;;;9.25;7.40;;;7.90;99.90;;;;;;6066941;23;89410;-75
2023/02/20 01:06:55;;;;;;;10.27;8.30;;;7.90;99.90;;;;;;6067514;23;90863;-75
2023/02/20 01:09:22;;;;;;;9.25;8.23;;;7.90;99.90;;;;;;6068943;23;87907;-75
2023/02/20 01:11:49;;;;;;;11.70;7.82;;;7.90;99.90;;;;;;6069690;23;88059;-75
2023/02/20 01:14:16;;;;;;;12.00;8.20;;;7.90;99.90;;;;;;6067286;23;87971;-75
2023/02/20 01:16:48;;;;;;;10.65;9.52;;;7.90;99.90;;;;;;6091644;23;91097;-75
2023/02/20 01:19:15;;;;;;;10.75;7.65;;;7.90;99.90;;;;;;6091607;23;92011;-75
2023/02/20 01:21:42;;;;;;;11.15;7.70;;;7.90;99.90;;;;;;6091703;23;89525;-75
2023/02/20 01:24:11;;;;;;;9.00;7.53;;;8.00;99.90;;;;;;6067169;23;89372;-75
2023/02/20 01:26:40;;;;;;;9.48;7.93;;;8.00;99.90;;;;;;6042744;23;91303;-75
2023/02/20 01:29:07;;;;;;;8.98;7.93;;;7.90;99.90;;;;;;6042794;23;91371;-75
2023/02/20 01:31:34;;;;;;;8.88;7.40;;;7.90;99.90;;;;;;6091639;23;90784;-76
2023/02/20 01:34:02;;;;;;;10.20;7.88;;;7.90;99.90;;;;;;6091646;23;89167;-75
2023/02/20 01:36:31;;;;;;;8.85;7.95;;;7.80;99.90;;;;;;6066785;23;88541;-75
2023/02/20 01:38:58;;;;;;;9.25;7.18;;;7.80;99.90;;;;;;6069148;23;88532;-75
2023/02/20 01:41:25;;;;;;;11.45;7.60;;;7.80;99.90;;;;;;6069040;23;88494;-75
2023/02/20 01:43:52;;;;;;;8.95;7.90;;;7.70;99.90;;;;;;6066497;23;89337;-75
2023/02/20 01:46:28;;;;;;;11.38;7.95;;;7.80;99.90;;;;;;6091775;23;88316;-75
2023/02/20 01:49:02;;;;;;;8.55;6.78;;;7.70;99.90;;;;;;6067250;23;91471;-75
2023/02/20 01:51:33;;;;;;;10.10;7.65;;;7.70;99.90;;;;;;6091746;23;88681;-75
2023/02/20 01:54:01;;;;;;;9.43;7.72;;;7.60;99.90;;;;;;6043011;23;89253;-75
2023/02/20 01:56:28;;;;;;;10.90;8.40;;;7.60;99.90;;;;;;6067108;23;90799;-75
2023/02/20 01:58:55;;;;;;;9.65;8.38;;;7.60;99.90;;;;;;6066870;23;90732;-75
2023/02/20 02:01:22;;;;;;;10.55;8.10;;;7.60;99.90;;;;;;6091738;23;91018;-75
2023/02/20 02:03:55;;;;;;;10.93;8.63;;;7.60;99.90;;;;;;6067323;23;89362;-75
2023/02/20 02:06:24;;;;;;;13.98;8.95;;;7.60;99.90;;;;;;6091601;23;91001;-75
2023/02/20 02:08:53;;;;;;;11.02;8.52;;;7.60;99.90;;;;;;6090409;23;92059;-75
2023/02/20 02:11:22;;;;;;;14.15;8.32;;;7.60;99.90;;;;;;6067039;23;91873;-75
2023/02/20 02:13:50;;;;;;;13.52;9.50;;;7.70;99.90;;;;;;6069016;23;88062;-75
2023/02/20 02:16:47;;;;;;;13.52;7.97;;;7.70;99.90;;;;;;6068269;23;88314;-75
2023/02/20 02:19:37;;;;;;;11.20;7.57;;;7.70;99.90;;;;;;6018908;23;91297;-75
2023/02/20 02:22:13;;;;;;;13.25;8.23;;;7.70;99.90;;;;;;6091881;23;90817;-75
2023/02/20 02:24:52;;;;;;;11.65;8.80;;;7.70;99.90;;;;;;6067081;23;89378;-75
2023/02/20 02:27:24;;;;;;;14.88;8.40;;;7.70;99.90;;;;;;6067620;23;91061;-75
2023/02/20 02:30:11;;;;;;;10.73;7.93;;;7.70;99.90;;;;;;6066760;23;92140;-75
2023/02/20 02:33:00;;;;;;;10.98;8.73;;;7.80;99.90;;;;;;6042632;23;90983;-75
2023/02/20 02:35:58;;;;;;;10.35;8.05;;;7.70;99.90;;;;;;6068331;23;88719;-75
2023/02/20 02:38:32;;;;;;;13.10;8.88;;;7.80;99.90;;;;;;6067232;23;91175;-75
2023/02/20 02:41:19;;;;;;;13.10;8.32;;;7.70;99.90;;;;;;6091574;23;88564;-75
2023/02/20 02:43:59;;;;;;;12.10;8.35;;;7.80;99.90;;;;;;6018769;23;91154;-75
2023/02/20 02:46:48;;;;;;;10.25;8.05;;;7.80;99.90;;;;;;6067128;23;89368;-75
2023/02/20 02:49:28;;;;;;;13.40;8.63;;;7.80;99.90;;;;;;6091748;23;90894;-75
2023/02/20 02:51:57;;;;;;;13.35;8.63;;;7.80;99.90;;;;;;6067085;23;90421;-75
2023/02/20 02:54:26;;;;;;;13.57;8.43;;;7.80;99.90;;;;;;6091824;23;92173;-75
2023/02/20 02:57:19;;;;;;;15.25;8.77;;;7.90;99.90;;;;;;6066217;23;89408;-75
2023/02/20 02:59:49;;;;;;;10.55;8.82;;;8.00;99.90;;;;;;6068507;23;88307;-75
2023/02/20 03:02:18;;;;;;;13.10;8.77;;;8.00;99.90;;;;;;6066389;23;92168;-75
2023/02/20 03:04:49;;;;;;;12.75;9.00;;;8.10;99.90;;;;;;6066255;23;92028;-75
2023/02/20 03:07:18;;;;;;;14.43;9.25;;;8.10;99.90;;;;;;6091636;23;88206;-75
2023/02/20 03:09:58;;;;;;;16.05;9.70;;;8.10;99.90;;;;;;6068409;23;88284;-75
2023/02/20 03:12:26;;;;;;;17.05;8.90;;;8.20;99.90;;;;;;6018608;23;91234;-75
2023/02/20 03:18:09;;;;;;;16.23;9.68;;;8.30;99.90;;;;;;6041564;23;89165;-75
2023/02/20 03:20:43;;;;;;;12.57;9.57;;;8.30;99.90;;;;;;6068851;23;88149;-75
2023/02/20 03:23:17;;;;;;;15.90;9.77;;;8.30;99.90;;;;;;6066941;23;88830;-75
2023/02/20 03:25:48;;;;;;;;;;;8.20;99.90;;;;;;6042609;23;91527;-75
2023/02/20 03:28:34;;;;;;;13.77;11.02;;;8.20;99.90;;;;;;6044468;23;89569;-75
2023/02/20 03:31:25;;;;;;;18.95;10.60;;;8.20;99.90;;;;;;6067096;23;91085;-75
2023/02/20 03:45:40;;;;;;;18.42;10.30;;;8.10;99.90;;;;;;6043464;23;91240;-75
2023/02/20 03:48:19;;;;;;;18.60;11.65;;;8.20;99.90;;;;;;6091905;23;91377;-75
2023/02/20 03:50:48;;;;;;;18.63;11.77;;;8.20;99.90;;;;;;6042088;23;89772;-75
2023/02/20 03:53:15;;;;;;;21.95;12.35;;;8.10;99.90;;;;;;6066811;23;89705;-75
2023/02/20 03:55:43;;;;;;;20.83;12.50;;;8.20;99.90;;;;;;6090420;23;91141;-75
2023/02/20 03:58:16;;;;;;;23.73;13.15;;;8.20;99.90;;;;;;6065877;23;91361;-75
2023/02/20 04:00:46;;;;;;;21.67;12.85;;;8.20;99.90;;;;;;6091256;23;91298;-75
2023/02/20 04:03:21;;;;;;;21.08;12.63;;;8.20;99.90;;;;;;6066222;23;89472;-75
2023/02/20 04:05:54;;;;;;;19.77;11.80;;;8.20;99.90;;;;;;6066145;23;89943;-75
2023/02/20 04:08:45;;;;;;;22.23;12.70;;;8.20;99.90;;;;;;6091659;23;91782;-75
2023/02/20 04:11:27;;;;;;;23.40;12.35;;;8.20;99.90;;;;;;6068714;23;88632;-75
2023/02/20 04:13:57;;;;;;;18.80;12.48;;;8.10;99.90;;;;;;6067079;23;90756;-75
2023/02/20 04:16:24;;;;;;;27.55;13.50;;;8.20;99.90;;;;;;6091206;23;90138;-76
2023/02/20 04:18:51;;;;;;;22.45;13.75;;;8.10;99.90;;;;;;6066363;23;91592;-75
2023/02/20 04:21:28;;;;;;;25.40;13.82;;;8.20;99.90;;;;;;6091071;23;91439;-75
2023/02/20 04:24:06;;;;;;;24.25;15.25;;;8.20;99.90;;;;;;6066383;23;90843;-75
2023/02/20 04:26:34;;;;;;;24.50;15.43;;;8.20;99.90;;;;;;6091272;23;88793;-75
2023/02/20 04:29:03;;;;;;;26.20;16.05;;;8.20;99.90;;;;;;6090343;23;91872;-75
2023/02/20 04:31:30;;;;;;;23.38;16.48;;;8.20;99.90;;;;;;6091119;23;91920;-75
2023/02/20 04:33:58;;;;;;;27.40;16.13;;;8.30;99.90;;;;;;6066097;23;90486;-75
2023/02/20 04:36:26;;;;;;;25.38;17.05;;;8.30;99.90;;;;;;6091232;23;90221;-75
2023/02/20 04:38:56;;;;;;;23.10;16.63;;;8.30;99.90;;;;;;6042032;23;91678;-75
2023/02/20 04:41:27;;;;;;;25.85;17.48;;;8.30;99.90;;;;;;6066912;23;91280;-75
2023/02/20 04:44:29;;;;;;;28.48;17.13;;;8.40;99.90;;;;;;6091037;23;90654;-75
2023/02/20 04:46:43;;;;;;;28.17;18.20;;;8.40;99.90;;;;;;6090345;23;90180;-75
2023/02/20 04:49:10;;;;;;;26.58;18.17;;;8.40;99.90;;;;;;6066550;23;90833;-75
2023/02/20 04:51:38;;;;;;;31.33;19.13;;;8.40;99.90;;;;;;6066363;23;90995;-75
2023/02/20 04:54:05;;;;;;;27.90;19.02;;;8.40;99.90;;;;;;6068151;23;88595;-75
2023/02/20 04:56:32;;;;;;;26.08;16.58;;;8.50;99.90;;;;;;6066377;23;90948;-75
2023/02/20 04:59:00;;;;;;;29.75;17.65;;;8.50;99.90;;;;;;6066260;23;90321;-75
2023/02/20 05:01:27;;;;;;;28.00;18.08;;;8.50;99.90;;;;;;6042380;23;91361;-75
2023/02/20 05:03:54;;;;;;;29.58;18.55;;;8.50;99.90;;;;;;6090558;23;88503;-75
2023/02/20 05:06:21;;;;;;;32.97;19.58;;;8.50;99.90;;;;;;6068311;23;89249;-75
2023/02/20 05:08:48;;;;;;;30.73;17.98;;;8.50;99.90;;;;;;6067593;23;101126;-75
2023/02/20 05:11:16;;;;;;;26.13;17.95;;;8.50;99.90;;;;;;6068111;23;88987;-75
2023/02/20 05:13:43;;;;;;;31.52;18.13;;;8.50;99.90;;;;;;6068478;23;88931;-75
2023/02/20 05:16:12;;;;;;;29.40;17.92;;;8.50;99.90;;;;;;6066110;23;91335;-75
2023/02/20 05:18:39;;;;;;;30.15;18.02;;;8.60;99.90;;;;;;6068368;23;88876;-75
2023/02/20 05:23:52;;;;;;;32.88;20.92;;;8.60;99.90;;;;;;6068291;23;88353;-75
2023/02/20 05:26:20;;;;;;;30.45;16.77;;;8.60;99.90;;;;;;6064005;23;93216;-76
2023/02/20 05:28:47;;;;;;;30.88;17.27;;;8.70;99.90;;;;;;6065824;23;100069;-76
2023/02/20 05:31:14;;;;;;;29.25;18.08;;;8.70;99.90;;;;;;6064188;23;92337;-76
2023/02/20 05:33:43;;;;;;;30.10;18.15;;;8.70;99.90;;;;;;6065851;23;92406;-75
2023/02/20 05:36:10;;;;;;;31.33;18.67;;;8.70;99.90;;;;;;6086734;23;95892;-75
2023/02/20 05:38:40;;;;;;;36.55;20.45;;;8.80;99.90;;;;;;6065495;23;95378;-75
2023/02/20 05:41:07;;;;;;;34.60;20.58;;;8.70;99.90;;;;;;6065719;23;92728;-75
2023/02/20 05:43:34;;;;;;;31.27;16.85;;;8.80;99.90;;;;;;6065762;23;92516;-76
2023/02/20 05:46:01;;;;;;;35.58;18.50;;;8.70;99.90;;;;;;6063310;23;95942;-76
2023/02/20 05:48:28;;;;;;;33.50;19.88;;;8.70;99.90;;;;;;6065558;23;93156;-76
2023/02/20 05:50:54;;;;;;;34.60;19.42;;;8.70;99.90;;;;;;6065374;23;96219;-76
2023/02/20 05:53:21;;;;;;;36.75;18.02;;;8.70;99.90;;;;;;6064649;23;91649;-75
2023/02/20 05:55:48;;;;;;;32.85;18.02;;;8.80;99.90;;;;;;6063909;23;93204;-75
2023/02/20 05:58:15;;;;;;;32.75;19.27;;;8.80;99.90;;;;;;6063531;23;94146;-75
2023/02/20 06:00:42;;;;;;;35.50;19.45;;;8.80;99.90;;;;;;6064269;23;94737;-75
2023/02/20 06:03:09;;;;;;;36.83;17.70;;;8.80;99.90;;;;;;6087946;23;92473;-75
2023/02/20 06:05:36;;;;;;;30.65;18.10;;;8.80;99.90;;;;;;6065471;23;93248;-75
2023/02/20 06:08:03;;;;;;;33.85;19.60;;;8.90;99.90;;;;;;6063398;23;94497;-75
2023/02/20 06:10:31;;;;;;;30.35;19.02;;;8.90;99.90;;;;;;6065204;23;103191;-75
2023/02/20 06:12:58;;;;;;;32.33;18.48;;;9.00;99.90;;;;;;6088257;23;92451;-76
2023/02/20 06:15:26;;;;;;;36.22;19.13;;;9.00;99.90;;;;;;6065443;23;93233;-76
2023/02/20 06:17:53;;;;;;;28.27;17.35;;;9.00;99.90;;;;;;6039706;23;96059;-76
2023/02/20 06:20:20;;;;;;;30.20;19.17;;;9.00;99.90;;;;;;6065640;23;92436;-76
2023/02/20 06:22:50;;;;;;;32.03;20.08;;;9.10;99.90;;;;;;6063968;23;92505;-76
2023/02/20 06:25:17;;;;;;;31.92;18.77;;;9.10;99.90;;;;;;6063600;23;95536;-76
2023/02/20 06:27:44;;;;;;;33.20;18.88;;;9.10;99.90;;;;;;6065133;23;95456;-76
2023/02/20 06:30:11;;;;;;;30.27;19.00;;;9.10;99.90;;;;;;6063709;23;93031;-75
2023/02/20 06:32:38;;;;;;;27.65;17.05;;;9.10;99.90;;;;;;6039392;23;92442;-75
2023/02/20 06:35:05;;;;;;;31.05;16.67;;;9.10;99.90;;;;;;6065128;23;93061;-76
2023/02/20 06:37:32;;;;;;;30.20;16.83;;;9.10;99.90;;;;;;6039010;23;101054;-75
2023/02/20 06:39:59;;;;;;;32.55;18.98;;;9.10;99.90;;;;;;6063608;23;92445;-75
2023/02/20 06:42:26;;;;;;;32.53;17.05;;;9.20;99.90;;;;;;6088757;23;91716;-75
2023/02/20 06:44:53;;;;;;;34.45;17.60;;;9.20;99.90;;;;;;6063413;23;95608;-75
2023/02/20 06:47:20;;;;;;;25.85;15.73;;;9.20;99.90;;;;;;6063306;23;93112;-76
2023/02/20 06:49:47;;;;;;;30.20;16.05;;;9.30;99.90;;;;;;6086894;23;94801;-76
2023/02/20 06:52:14;;;;;;;29.70;16.85;;;9.30;99.90;;;;;;6063592;23;92482;-76
2023/02/20 06:54:42;;;;;;;28.42;16.60;;;9.30;99.90;;;;;;6063230;23;99073;-76
2023/02/20 06:57:09;;;;;;;27.95;16.58;;;9.40;99.90;;;;;;6063138;23;95474;-75
2023/02/20 06:59:38;;;;;;;30.20;17.90;;;9.40;99.90;;;;;;6088354;23;92931;-75
2023/02/20 07:02:09;;;;;;;28.17;14.40;;;9.40;99.90;;;;;;6062719;23;92484;-76
2023/02/20 07:04:36;;;;;;;25.80;15.52;;;9.50;99.90;;;;;;6062689;23;94272;-75
2023/02/20 07:07:03;;;;;;;26.70;14.15;;;9.40;99.90;;;;;;6063678;23;93068;-75
2023/02/20 07:09:30;;;;;;;27.67;14.75;;;9.50;99.90;;;;;;6063621;23;92480;-76
2023/02/20 07:11:57;;;;;;;26.08;14.80;;;9.50;99.90;;;;;;6063471;23;92450;-76
2023/02/20 07:14:24;;;;;;;21.38;14.00;;;9.50;99.90;;;;;;6063187;23;94815;-74
2023/02/20 07:16:51;;;;;;;28.83;14.13;;;9.50;99.90;;;;;;6063491;23;95305;-76
2023/02/20 07:19:18;;;;;;;28.15;14.05;;;9.50;99.90;;;;;;6064933;23;92403;-74
2023/02/20 07:21:46;;;;;;;23.67;14.40;;;9.60;99.90;;;;;;6087782;23;92576;-74
2023/02/20 07:24:13;;;;;;;23.80;14.80;;;9.60;99.90;;;;;;6064224;23;103229;-74
2023/02/20 07:26:39;;;;;;;25.05;12.60;;;9.60;99.90;;;;;;6087425;23;94454;-74
2023/02/20 07:29:07;;;;;;;26.05;12.85;;;9.60;99.90;;;;;;6063289;23;92394;-74
2023/02/20 07:31:34;;;;;;;22.25;11.73;;;9.60;99.90;;;;;;6065256;23;91653;-74
2023/02/20 07:34:01;;;;;;;22.10;12.93;;;9.70;99.90;;;;;;6087830;23;92816;-74
2023/02/20 07:36:35;;;;;;;24.63;13.00;;;9.70;99.90;;;;;;6063158;23;95243;-74
2023/02/20 07:39:03;;;;;;;27.42;13.50;;;9.70;99.90;;;;;;6063517;23;94865;-74
2023/02/20 07:41:31;;;;;;;21.30;12.85;;;9.70;99.90;;;;;;6038650;23;92514;-74
2023/02/20 07:43:58;;;;;;;23.08;12.90;;;9.80;99.90;;;;;;6039057;23;93311;-74
2023/02/20 07:46:25;;;;;;;24.95;13.43;;;9.80;99.90;;;;;;6062743;23;93381;-74
2023/02/20 07:48:52;;;;;;;23.55;12.48;;;9.80;99.90;;;;;;6064930;23;92418;-74
2023/02/20 07:51:19;;;;;;;18.75;11.40;;;9.90;99.90;;;;;;6064696;23;92433;-74
2023/02/20 07:53:51;;;;;;;27.45;12.20;;;9.90;99.90;;;;;;6062788;23;95870;-75
2023/02/20 07:56:19;;;;;;;24.52;11.90;;;9.90;99.90;;;;;;6065040;23;93003;-75
2023/02/20 07:58:47;;;;;;;18.02;11.75;;;9.90;99.90;;;;;;6087711;23;92434;-75
2023/02/20 08:01:14;;;;;;;20.35;12.07;;;10.00;99.90;;;;;;6062417;23;92489;-75
2023/02/20 08:03:41;;;;;;;18.25;11.90;;;10.00;99.90;;;;;;6062588;23;95530;-75
2023/02/20 08:06:08;;;;;;;20.90;12.50;;;10.00;99.90;;;;;;6087347;23;95221;-74
2023/02/20 08:08:36;;;;;;;19.73;11.77;;;10.10;99.90;;;;;;6064732;23;92283;-74
2023/02/20 08:11:03;;;;;;;20.60;11.35;;;10.10;99.90;;;;;;6062790;23;93200;-75
2023/02/20 08:13:36;;;;;;;20.10;11.43;;;10.10;99.90;;;;;;6086467;23;93193;-75
2023/02/20 08:16:03;;;;;;;20.92;11.52;;;10.00;99.90;;;;;;6088768;23;92893;-74
2023/02/20 08:18:30;;;;;;;18.55;11.35;;;10.10;99.90;;;;;;6066028;23;94521;-75
2023/02/20 08:20:57;;;;;;;18.05;11.32;;;10.10;99.90;;;;;;6066464;23;91702;-75
2023/02/20 08:23:24;;;;;;;23.95;12.02;;;10.20;99.90;;;;;;6065634;23;93269;-74
2023/02/20 08:25:52;;;;;;;20.63;11.00;;;10.20;99.90;;;;;;6065926;23;93102;-75
2023/02/20 08:28:20;;;;;;;22.17;11.43;;;10.20;99.90;;;;;;6064172;23;94867;-75
2023/02/20 08:30:47;;;;;;;21.98;10.75;;;10.30;99.90;;;;;;6088676;23;92405;-75
2023/02/20 08:33:14;;;;;;;18.15;11.45;;;10.30;99.90;;;;;;6064003;23;93287;-74
2023/02/20 08:35:41;;;;;;;18.33;10.95;;;10.30;99.90;;;;;;6065943;23;92902;-75
2023/02/20 08:38:22;;;;;;;17.63;10.10;;;10.40;99.90;;;;;;6088583;23;92361;-74
2023/02/20 08:40:49;;;;;;;21.25;9.80;;;10.50;99.90;;;;;;6088739;23;92357;-74
2023/02/20 08:43:16;;;;;;;19.98;10.15;;;10.50;99.90;;;;;;6064215;23;95645;-75
2023/02/20 08:45:43;;;;;;;15.43;9.35;;;10.60;99.90;;;;;;6066184;23;91879;-74
2023/02/20 08:48:10;;;;;;;13.32;9.15;;;10.60;99.90;;;;;;6066509;23;92374;-74
2023/02/20 08:50:37;;;;;;;16.35;9.10;;;10.60;99.90;;;;;;6089162;23;92453;-74
2023/02/20 08:53:04;;;;;;;11.98;8.60;;;10.70;99.90;;;;;;6064824;23;95743;-75
2023/02/20 08:55:31;;;;;;;14.38;9.43;;;10.70;99.90;;;;;;6088496;23;98155;-74
2023/02/20 08:57:58;;;;;;;19.50;9.07;;;10.60;99.90;;;;;;6089469;23;92365;-75
2023/02/20 09:00:27;;;;;;;16.98;8.65;;;10.70;99.90;;;;;;6066390;23;92372;-75
2023/02/20 09:02:54;;;;;;;19.08;8.48;;;10.70;99.90;;;;;;6066029;23;93404;-74
2023/02/20 09:05:21;;;;;;;17.73;9.05;;;10.70;99.90;;;;;;6089020;23;93133;-74
2023/02/20 09:07:48;;;;;;;19.02;9.32;;;10.80;99.90;;;;;;6089200;23;92371;-75
2023/02/20 09:10:18;;;;;;;14.48;10.18;;;10.80;99.90;;;;;;6065321;23;91807;-75
2023/02/20 09:12:46;;;;;;;18.85;9.50;;;10.90;99.90;;;;;;6065723;23;93304;-75
2023/02/20 09:15:16;;;;;;;15.20;9.20;;;10.90;99.90;;;;;;6040716;23;93052;-75
2023/02/20 09:17:47;;;;;;;14.98;8.52;;;10.90;99.90;;;;;;6088185;23;94959;-75
2023/02/20 09:20:15;;;;;;;14.10;8.13;;;11.00;99.90;;;;;;6040875;23;93134;-75
2023/02/20 09:22:42;;;;;;;18.92;8.40;;;11.00;99.90;;;;;;6066008;23;93212;-75
2023/02/20 09:25:11;;;;;;;16.60;8.93;;;11.10;99.90;;;;;;6065609;23;103388;-75
2023/02/20 09:27:38;;;;;;;12.90;7.82;;;11.00;99.90;;;;;;6039969;23;92352;-75
2023/02/20 09:30:06;;;;;;;14.30;8.07;;;11.00;99.90;;;;;;6066420;23;92397;-75
2023/02/20 09:32:33;;;;;;;17.95;8.52;;;11.00;99.90;;;;;;6066175;23;92982;-75
2023/02/20 09:35:00;;;;;;;14.13;7.57;;;11.00;99.90;;;;;;6066667;23;93077;-75
2023/02/20 09:37:27;;;;;;;17.33;8.93;;;11.00;99.90;;;;;;6064646;23;92388;-75
2023/02/20 09:39:54;;;;;;;16.45;8.27;;;11.00;99.90;;;;;;6088208;23;92450;-75
2023/02/20 09:42:38;;;;;;;16.35;8.25;;;11.00;99.90;;;;;;6087352;23;95740;-75
2023/02/20 09:45:17;;;;;;;13.07;7.43;;;11.00;99.90;;;;;;6066163;23;95255;-75
2023/02/20 09:48:01;;;;;;;13.98;8.35;;;11.00;99.90;;;;;;6064041;23;92389;-75
2023/02/20 09:50:43;;;;;;;;;;;11.00;99.90;;;;;;6089653;23;92434;-75
2023/02/20 09:53:36;;;;;;;16.92;8.27;;;10.90;99.90;;;;;;6067749;23;93256;-75
2023/02/20 09:56:09;;;;;;;16.80;9.35;;;11.00;99.90;;;;;;6066279;23;92821;-75
2023/02/20 09:58:52;;;;;;;16.75;7.90;;;11.00;99.90;;;;;;6066200;23;92325;-75
2023/02/20 10:01:22;;;;;;;13.73;7.97;;;11.10;99.90;;;;;;6066897;23;91648;-75
2023/02/20 10:04:05;;;;;;;14.88;7.95;;;11.10;99.90;;;;;;6063912;23;93298;-75
2023/02/20 10:06:33;;;;;;;15.95;7.60;;;11.10;99.90;;;;;;6066011;23;92400;-75
2023/02/20 10:09:02;;;;;;;15.75;8.15;;;11.10;99.90;;;;;;6064937;23;94787;-75
2023/02/20 10:11:40;;;;;;;15.80;7.25;;;11.10;99.90;;;;;;6066218;23;92461;-75
2023/02/20 10:14:25;;;;;;;21.42;7.85;;;11.20;99.90;;;;;;6064070;23;95683;-75
2023/02/20 10:16:55;;;;;;;14.07;6.93;;;11.20;99.90;;;;;;6089051;23;94226;-75
2023/02/20 10:19:37;;;;;;;14.75;6.97;;;11.10;99.90;;;;;;6066372;23;92358;-75
2023/02/20 10:22:29;;;;;;;17.45;7.50;;;11.20;99.90;;;;;;6064175;23;92424;-75
2023/02/20 10:25:13;;;;;;;11.75;6.90;;;11.20;99.90;;;;;;6066164;23;93145;-75
2023/02/20 10:27:53;;;;;;;12.45;7.07;;;11.10;99.90;;;;;;6040119;23;94496;-75
2023/02/20 10:30:34;;;;;;;15.70;7.70;;;11.10;99.90;;;;;;6066356;23;92388;-75
2023/02/20 10:33:01;;;;;;;15.82;7.50;;;11.20;99.90;;;;;;6064480;23;92375;-75
2023/02/20 10:35:46;;;;;;;15.98;7.75;;;11.20;99.90;;;;;;6086991;23;95529;-76
2023/02/20 10:38:19;;;;;;;11.15;7.28;;;11.20;99.90;;;;;;6088398;23;95359;-75
2023/02/20 10:41:00;;;;;;;13.18;7.68;;;11.20;99.90;;;;;;6064294;23;92380;-75
2023/02/20 10:43:53;;;;;;;15.95;7.97;;;11.20;99.90;;;;;;6066224;23;92461;-75
2023/02/20 10:46:49;;;;;;;11.48;7.60;;;11.20;99.90;;;;;;6064172;23;96237;-75
2023/02/20 10:49:34;;;;;;;14.23;6.80;;;11.20;99.90;;;;;;6064326;23;93011;-75
2023/02/20 10:52:04;;;;;;;11.65;6.95;;;11.20;99.90;;;;;;6066223;23;92407;-75
2023/02/20 10:54:38;;;;;;;14.05;7.35;;;11.20;99.90;;;;;;6066277;23;91676;-75
2023/02/20 10:57:13;;;;;;;;;;;11.30;99.90;;;;;;6066264;23;92907;-75
2023/02/20 10:59:49;;;;;;;14.88;7.75;;;11.20;99.90;;;;;;6089850;23;93097;-75
2023/02/20 11:02:24;;;;;;;12.25;8.30;;;11.20;99.90;;;;;;6064915;23;94815;-75
2023/02/20 11:04:56;;;;;;;14.73;7.78;;;11.20;99.90;;;;;;6088239;23;92393;-75
2023/02/20 11:07:23;;;;;;;13.55;7.60;;;11.30;99.90;;;;;;6088407;23;93104;-75
2023/02/20 11:09:50;;;;;;;13.63;8.10;;;11.30;99.90;;;;;;6088279;23;93074;-75
2023/02/20 11:12:28;;;;;;;13.27;7.40;;;11.30;99.90;;;;;;6066059;23;92305;-75
2023/02/20 11:15:04;;;;;;;15.80;7.60;;;11.30;99.90;;;;;;6066019;23;92416;-75
2023/02/20 11:17:33;;;;;;;12.47;7.67;;;11.40;99.90;;;;;;6065782;23;93265;-75
2023/02/20 11:20:03;;;;;;;13.27;7.35;;;11.50;99.90;;;;;;6066154;23;92992;-75
2023/02/20 11:22:41;;;;;;;15.52;7.22;;;11.60;99.90;;;;;;6065899;23;92439;-75
2023/02/20 11:25:14;;;;;;;8.05;6.32;;;11.60;99.90;;;;;;6064192;23;92839;-75
2023/02/20 11:27:41;;;;;;;9.05;6.20;;;11.60;99.90;;;;;;6063732;23;95601;-75
2023/02/20 11:30:31;;;;;;;11.60;6.43;;;11.60;99.90;;;;;;6065466;23;93941;-75
2023/02/20 11:33:23;;;;;;;11.43;6.32;;;11.70;99.90;;;;;;6063900;23;92363;-75
2023/02/20 11:35:55;;;;;;;16.67;7.68;;;11.80;99.90;;;;;;6060976;23;92618;-75
2023/02/20 11:38:22;;;;;;;11.65;6.28;;;11.80;99.90;;;;;;6039819;23;95659;-75
2023/02/20 11:40:52;;;;;;;17.83;7.32;;;11.80;99.90;;;;;;6063183;23;95433;-75
2023/02/20 11:43:26;;;;;;;9.30;6.10;;;11.90;99.90;;;;;;6063625;23;92460;-75
2023/02/20 11:46:07;;;;;;;9.07;6.30;;;11.80;99.90;;;;;;6039842;23;91792;-75
2023/02/20 11:48:34;;;;;;;11.20;6.43;;;11.80;99.90;;;;;;6066127;23;93062;-75
2023/02/20 11:51:01;;;;;;;11.82;6.63;;;11.80;99.90;;;;;;6066114;23;100843;-75
2023/02/20 11:53:33;;;;;;;9.68;5.82;;;11.90;99.90;;;;;;6065558;23;94684;-75
2023/02/20 11:56:13;;;;;;;9.18;6.20;;;11.90;99.90;;;;;;6089471;23;92561;-75
2023/02/20 11:58:41;;;;;;;15.45;6.80;;;11.90;99.90;;;;;;6066587;23;93206;-75
2023/02/20 12:01:29;;;;;;;13.65;6.18;;;11.90;99.90;;;;;;6089435;23;93068;-75
2023/02/20 12:03:58;;;;;;;10.90;6.63;;;12.00;99.90;;;;;;6065881;23;92414;-75
2023/02/20 12:06:37;;;;;;;13.18;6.75;;;12.00;99.90;;;;;;6066896;23;92461;-75
2023/02/20 12:09:10;;;;;;;11.23;6.30;;;12.00;99.90;;;;;;6089399;23;95711;-75
2023/02/20 12:11:38;;;;;;;9.98;5.90;;;12.00;99.90;;;;;;6067156;23;92952;-75
2023/02/20 12:14:10;;;;;;;15.20;6.78;;;11.90;99.90;;;;;;6064616;23;92552;-75
2023/02/20 12:17:04;;;;;;;10.95;6.25;;;11.90;99.90;;;;;;6040894;23;92391;-75
2023/02/20 12:19:52;;;;;;;13.85;6.35;;;11.90;99.90;;;;;;6039163;23;97966;-75
2023/02/20 12:22:34;;;;;;;10.82;5.85;;;11.90;99.90;;;;;;6066536;23;95397;-75
2023/02/20 12:25:37;;;;;;;9.52;6.10;;;12.00;99.90;;;;;;6066800;23;92408;-75
2023/02/20 12:28:04;;;;;;;10.45;6.13;;;12.00;99.90;;;;;;6064886;23;92473;-75
2023/02/20 12:31:05;;;;;;;12.45;6.18;;;11.90;99.90;;;;;;6066566;23;92977;-75
2023/02/20 12:33:42;;;;;;;11.60;6.32;;;12.10;99.90;;;;;;6066477;23;92949;-75
2023/02/20 12:36:49;;;;;;;15.10;6.78;;;12.00;99.90;;;;;;6067028;23;92835;-75
2023/02/20 12:39:24;;;;;;;10.55;6.13;;;12.10;99.90;;;;;;6035172;23;93211;-75
2023/02/20 12:42:16;;;;;;;11.82;6.78;;;12.00;99.90;;;;;;6040219;23;93156;-75
2023/02/20 12:44:55;;;;;;;19.42;6.97;;;12.00;99.90;;;;;;6066490;23;92973;-75
2023/02/20 12:47:28;;;;;;;12.02;5.90;;;12.00;99.90;;;;;;6065331;23;94752;-75
2023/02/20 12:49:55;;;;;;;14.63;6.20;;;12.00;99.90;;;;;;6039385;23;92476;-75
2023/02/20 12:52:44;;;;;;;11.48;5.95;;;12.10;99.90;;;;;;6066350;23;93157;-75
2023/02/20 12:55:24;;;;;;;12.93;6.47;;;12.10;99.90;;;;;;6066402;23;93090;-75
2023/02/20 12:58:35;;;;;;;10.82;5.72;;;12.10;99.90;;;;;;6089207;23;92921;-75
2023/02/20 13:01:10;;;;;;;12.35;6.45;;;12.20;99.90;;;;;;6088707;23;92529;-75
2023/02/20 13:03:56;;;;;;;11.27;5.15;;;12.10;99.90;;;;;;6066056;23;93086;-75
2023/02/20 13:06:33;;;;;;;7.78;5.28;;;12.10;99.90;;;;;;6066837;23;92225;-75
2023/02/20 13:09:00;;;;;;;14.75;6.20;;;12.00;99.90;;;;;;6089204;23;92845;-75
2023/02/20 13:11:33;;;;;;;10.57;5.25;;;12.10;99.90;;;;;;6064610;23;92559;-75
2023/02/20 13:14:12;;;;;;;11.05;5.45;;;12.10;99.90;;;;;;6064534;23;95435;-75
2023/02/20 13:16:57;;;;;;;9.85;5.25;;;12.20;99.90;;;;;;6066292;23;95401;-75
2023/02/20 13:19:41;;;;;;;10.93;5.60;;;12.20;99.90;;;;;;6066641;23;92468;-76
2023/02/20 13:22:08;;;;;;;13.35;5.78;;;12.20;99.90;;;;;;6066291;23;92351;-75